CFU weather

Fumigaciones Aereas Cervantes Airport
Bacum, Sonora, Mexico

Public forecast

Using degrees Celsius for public forecast. Weather courtesy of forecast.io.

Closest aviation weather report (METAR) to Fumigaciones Aereas Cervantes Airport

Closest report is Ciudad Obregón International Airport, 14.3 nm (26.5 km) E. Retrieved 2020/07/11 13:46 UTC (20 minutes ago):

MMCN 111346Z 11010KT 10SM -RA FEW015 OVC080 24/23 A2995 RMK 60025 8/46/

Closest aviation forecast (TAF) to Fumigaciones Aereas Cervantes Airport

Forecast is more than 6 hours old.

Closest forecast is Ciudad Obregón International Airport, 14.3 nm (26.5 km) E. Retrieved 2020/07/11 06:57 UTC (7 hours ago):

TAF TAF MMCN 110454Z 1106/1206 24008KT P6SM SCT020 BKN200 TEMPO 1106/1110 6SM -TSRA BKN020CB FM111200 16005KT 6SM HZ SCT020 SCT070 FM111800 22010KT P6SM SCT030 SCT200 TEMPO 1200/1204 6SM TSRA BKN020CB